Dht Holdings Inc (DHT) Latest Bloomsberg Price


Mffais Ranking #2246 Overall / #24 Industry
Industry: Marine Shipping

Number of Companies: 120 (Ranking #1425 Overall/#7 Industry)
Inflow: $ 16,921 (K) (Ranking #1811 Overall/#10 Industry)
Outflow: $ -56,293 (K)
Mffais Flow: $ -39,371 (K) (Ranking #2246 Overall/#24 Industry)


Owner CPOR Shares Action Qty Chg Invested (K) Total Current Value (K)
Cedar Capital Llc 2016-09-30 1,230,344 New Holding 1,230,344 $ 6,040 $ 6,040
Gsa Capital Partners Llp 2016-09-30 643,850 Added More 347,773 $ 1,707 $ 3,161
Hutchin Hill Capital Lp 2016-09-30 303,400 New Holding 303,400 $ 1,489 $ 1,489
Guggenheim Capital Llc 2016-09-30 477,889 Added More 227,037 $ 1,114 $ 2,346
Highbridge Capital Management Llc 2016-09-30 562,326 Added More 216,479 $ 1,062 $ 2,761
Sterneck Capital Management Llc 2016-09-30 410,687 Added More 180,767 $ 887 $ 2,016
Panagora Asset Management Inc 2016-09-30 437,764 Added More 171,379 $ 841 $ 2,149
Midas Management Corp 2016-09-30 140,000 New Holding 140,000 $ 687 $ 687
Kcg Holdings Inc 2016-09-30 154,707 Added More 90,134 $ 442 $ 759
Walleye Trading Llc 2016-09-30 62,532 Added More 58,532 $ 287 $ 307
Nuveen Asset Management Llc 2016-09-30 51,232 New Holding 51,232 $ 251 $ 251
Two Sigma Securities Llc 2016-09-30 43,731 New Holding 43,731 $ 214 $ 214
Invictus Rg 2016-09-30 40,358 New Holding 40,358 $ 198 $ 198
M Holdings Securities Inc 2016-09-30 205,000 Added More 35,000 $ 171 $ 1,006
Alps Advisors Inc 2016-09-30 98,539 Added More 34,830 $ 171 $ 483
Nuveen Fund Advisors Llc 2016-09-30 219,849 Added More 33,647 $ 165 $ 1,079
Frontier Wealth Management Llc 2016-09-30 31,316 New Holding 31,316 $ 153 $ 153
Cutler Group Lp 2016-09-30 40,512 Added More 30,300 $ 148 $ 198
Sg Americas Securities Llc 2016-09-30 23,612 New Holding 23,612 $ 115 $ 115
Stevens Capital Management Lp 2016-09-30 32,203 Added More 21,602 $ 106 $ 158
Cetera Advisors Llc 2016-09-30 21,000 New Holding 21,000 $ 103 $ 103
James Investment Research Inc 2016-09-30 138,825 Added More 20,780 $ 102 $ 681
Grt Capital Partners L L C 2016-09-30 160,000 Added More 20,000 $ 98 $ 785
Argentus Capital Management Llc 2016-09-30 15,704 New Holding 15,704 $ 77 $ 77
Cambridge Investment Research Advisors Inc 2016-09-30 11,658 New Holding 11,658 $ 57 $ 57
Us Bancorp De 2016-09-30 10,000 New Holding 10,000 $ 49 $ 49
Geneva Advisors Llc 2016-09-30 10,000 New Holding 10,000 $ 49 $ 49
Msi Financial Services Inc 2016-09-30 7,302 Added More 6,695 $ 32 $ 35
Emerald Acquisition Ltd 2016-09-30 70,618 Added More 3,970 $ 19 $ 346
Creative Planning 2016-09-30 11,683 Added More 3,183 $ 15 $ 57
Ifp Advisors Inc 2016-09-30 3,596 Added More 2,378 $ 11 $ 17
Ladenburg Thalmann Financial Services Inc 2016-09-30 4,661 Added More 2,043 $ 10 $ 22
Central Trust Co 2016-09-30 2,000 New Holding 2,000 $ 9 $ 9
California State Teachers Retirement System 2016-09-30 193,899 Added More 1,400 $ 6 $ 952
Rhumbline Advisers 2016-09-30 110,750 Added More 1,340 $ 6 $ 543
Northwestern Mutual Wealth Management Co 2016-09-30 880 New Holding 880 $ 4 $ 4
Advisor Group Inc 2016-09-30 3,508 Added More 845 $ 4 $ 17
Sei Investments Co 2016-09-30 461 New Holding 461 $ 2 $ 2
Next Financial Group Inc 2016-09-30 212 New Holding 212 $ 1 $ 1
New York State Teachers Retirement System 2016-09-30 8,100 Added More 200 $ 0 $ 39
Fifth Third Bancorp 2016-09-30 83 New Holding 83 $ 0 $ 0
American International Group Inc 2016-09-30 52,929 Added More 81 $ 0 $ 259
Winch Advisory Services Llc 2016-09-30 870 No Change 0 $ 0 $ 4
New York State Common Retirement Fund 2016-09-30 84,800 No Change 0 $ 0 $ 416
Strategic Investment Management Llc 2016-09-30 35,755 No Change 0 $ 0 $ 175
Teachers Advisors Inc 2016-09-30 142,611 No Change 0 $ 0 $ 700
Nationwide Fund Advisors 2016-09-30 70,997 No Change 0 $ 0 $ 348
Bridgeway Capital Management Inc 2016-09-30 686,922 No Change 0 $ 0 $ 3,372
Rbf Capital Llc 2016-09-30 60,000 No Change 0 $ 0 $ 294
Lasry Marc 2016-09-30 73,813 No Change 0 $ 0 $ 362
Anchorage Capital Group L L C 2016-09-30 2,632,558 No Change 0 $ 0 $ 12,925
Robeco Institutional Asset Management B V 2016-09-30 142,148 No Change 0 $ 0 $ 697
Oshaughnessy Asset Management Llc 2016-09-30 133 No Change 0 $ 0 $ 0
Wealthtrust Axiom Llc 2016-09-30 20,440 No Change 0 $ 0 $ 100
Carleon Capital Partners Llc 2016-09-30 64,977 No Change 0 $ 0 $ 319
Reservoir Operations L P 2016-09-30 87,644 No Change 0 $ 0 $ 430
Holt Capital Advisors L L C Dba Holt Capital Partners L P 2016-09-30 67,510 No Change 0 $ 0 $ 331
Connor Clark Lunn Investment Management Ltd 2016-09-30 53,600 No Change 0 $ 0 $ 263
Meeder Asset Management Inc 2016-09-30 0 Sold All -13 $ -0 $ 0
Mufg Americas Holdings Corp 2016-09-30 436 Sold Some -224 $ -1 $ 2
Blackrock Investment Management Llc 2016-09-30 397,847 Sold Some -1,396 $ -6 $ 1,953
Fuller Thaler Asset Management Inc 2016-09-30 0 Sold All -1,965 $ -9 $ 0
Tudor Investment Corp Et Al 2016-09-30 57,400 Sold Some -2,800 $ -13 $ 281
Cubist Systematic Strategies Llc 2016-09-30 16,387 Sold Some -3,313 $ -16 $ 80
Blackrock Japan Co Ltd 2016-09-30 0 Sold All -4,304 $ -21 $ 0
Simplex Trading Llc 2016-09-30 1,048 Sold Some -7,125 $ -34 $ 5
Blackrock Inc 2016-09-30 65,589 Sold Some -7,128 $ -34 $ 322
Mount Lucas Management Lp 2016-09-30 138,266 Sold Some -9,353 $ -45 $ 678
Tower Research Capital Llc Trc 2016-09-30 0 Sold All -9,512 $ -46 $ 0
Denver Investment Advisors Llc 2016-09-30 0 Sold All -10,591 $ -52 $ 0
Picton Mahoney Asset Management 2016-09-30 0 Sold All -11,100 $ -54 $ 0
Proshare Advisors Llc 2016-09-30 0 Sold All -11,229 $ -55 $ 0
Campbell Co Investment Adviser Llc 2016-09-30 22,408 Sold Some -11,656 $ -57 $ 110
Nine Chapters Capital Management Llc 2016-09-30 0 Sold All -12,200 $ -59 $ 0
Kennedy Capital Management Inc 2016-09-30 591,937 Sold Some -12,889 $ -63 $ 2,906
First Mercantile Trust Co 2016-09-30 0 Sold All -13,500 $ -66 $ 0
Dynamic Technology Lab Private Ltd 2016-09-30 87,966 Sold Some -16,980 $ -83 $ 431
Murphy Capital Management Inc 2016-09-30 0 Sold All -18,000 $ -88 $ 0
Baldwin Brothers Inc Ma 2016-09-30 19,500 Sold Some -18,000 $ -88 $ 95
Dimensional Fund Advisors Lp 2016-09-30 7,933,417 Sold Some -18,061 $ -88 $ 38,953
Springbok Capital Management Llc 2016-09-30 94,171 Sold Some -18,500 $ -90 $ 462
Jane Street Group Llc 2016-09-30 0 Sold All -18,975 $ -93 $ 0
Globeflex Capital L P 2016-09-30 0 Sold All -19,473 $ -95 $ 0
Bowling Portfolio Management Llc 2016-09-30 0 Sold All -19,811 $ -97 $ 0
Counsel Portfolio Services Inc 2016-06-30 0 Sold All -21,354 $ -107 $ 0
Peak6 Investments L P 2016-09-30 72,826 Sold Some -27,854 $ -136 $ 357
Axa 2016-09-30 0 Sold All -40,700 $ -199 $ 0
Fisher Asset Management Llc 2016-09-30 140,032 Sold Some -43,153 $ -211 $ 687
Shinko Asset Management Co Ltd 2016-09-30 140,032 Sold Some -43,153 $ -211 $ 687
Quantbot Technologies Lp 2016-09-30 21,602 Sold Some -45,206 $ -221 $ 106
Spot Trading L L C 2016-09-30 0 Sold All -46,506 $ -228 $ 0
Interocean Capital Llc 2016-09-30 0 Sold All -54,825 $ -269 $ 0
Zacks Investment Management 2016-09-30 0 Sold All -55,007 $ -270 $ 0
Squarepoint Ops Llc 2016-09-30 22,000 Sold Some -65,443 $ -321 $ 108
Trexquant Investment Lp 2016-09-30 54,348 Sold Some -70,052 $ -343 $ 266
Oxbow Advisors Llc 2016-09-30 1,385,267 Sold Some -85,989 $ -422 $ 6,801
Group One Trading L P 2016-09-30 40,085 Sold Some -91,850 $ -450 $ 196
Tfs Capital Llc 2016-09-30 19,229 Sold Some -95,541 $ -469 $ 94
Basso Capital Management L P 2016-09-30 0 Sold All -120,000 $ -589 $ 0
Putnam Investments Llc 2016-09-30 0 Sold All -130,223 $ -639 $ 0
Engineers Gate Manager Lp 2016-09-30 0 Sold All -131,524 $ -645 $ 0
Aperio Group Llc 2016-09-30 0 Sold All -135,440 $ -665 $ 0
Parametric Portfolio Associates Llc 2016-09-30 72,148 Sold Some -142,165 $ -698 $ 354
Chicago Equity Partners Llc 2016-09-30 0 Sold All -161,210 $ -791 $ 0
Northern Trust Corp 2016-09-30 1,069,608 Sold Some -166,152 $ -815 $ 5,251
Weiss Multi-Strategy Advisers Llc 2016-09-30 0 Sold All -199,300 $ -978 $ 0
A R T Advisors Llc 2016-09-30 0 Sold All -205,534 $ -1,009 $ 0
Lombard Odier Asset Management Usa Corp 2016-09-30 0 Sold All -212,894 $ -1,045 $ 0
Oceanic Investment Management Ltd 2016-09-30 0 Sold All -230,756 $ -1,133 $ 0
Pnc Financial Services Group Inc 2016-09-30 0 Sold All -239,717 $ -1,177 $ 0
Clarivest Asset Management Llc 2016-09-30 21,700 Sold Some -255,251 $ -1,253 $ 106
Systematic Financial Management Lp 2016-09-30 0 Sold All -328,660 $ -1,613 $ 0
Glg Partners Lp 2016-09-30 0 Sold All -376,272 $ -1,847 $ 0
Perritt Capital Management Inc 2016-09-30 95,000 Sold Some -569,590 $ -2,796 $ 466
Opus Capital Group Llc 2016-09-30 0 Sold All -698,497 $ -3,429 $ 0
Segantii Capital Management Ltd 2016-09-30 0 Sold All -775,000 $ -3,805 $ 0
Global X Management Co Llc 2016-09-30 0 Sold All -1,169,485 $ -5,742 $ 0
Marshall Wace Llp 2016-09-30 232,711 Sold Some -1,233,911 $ -6,058 $ 1,142
Qs Investors Llc 2016-09-30 1,103,700 Sold Some -1,458,800 $ -7,162 $ 5,419
Bogle Investment Management L P De 2016-09-30 0 Sold All -1,459,442 $ -7,165 $ 0